Time;durP1;ratioP1;P1;durP2;ratioP2;P2;SDS_P1;SDS_P2;PMS_P1;PMS_P2;Temp;Humidity;BMP_temperature;BMP_pressure;BME280_temperature;BME280_humidity;BME280_pressure;Samples;Min_cycle;Max_cycle;Signal;HPM_P1;HPM_P2
2023/11/03 00:00:55;;;;;;;;;7.00;7.00;;;;;17.27;100.00;96493.88;6212596;28;96705;-64
2023/11/03 00:03:58;;;;;;;;;9.40;9.00;;;;;17.24;100.00;96497.25;6230450;28;96890;-64
2023/11/03 00:07:04;;;;;;;;;8.40;8.40;;;;;17.15;100.00;96483.63;6214676;28;97513;-64
2023/11/03 00:10:09;;;;;;;;;5.00;5.00;;;;;17.14;100.00;96483.97;6215108;28;96694;-63
2023/11/03 00:13:15;;;;;;;;;8.00;8.00;;;;;16.95;100.00;96480.78;6213621;28;96691;-64
2023/11/03 00:16:18;;;;;;;;;9.00;9.00;;;;;17.11;100.00;96474.50;6216682;28;96345;-59
2023/11/03 00:19:21;;;;;;;;;7.00;6.00;;;;;17.04;100.00;96493.25;6228149;28;96410;-60
2023/11/03 00:22:24;;;;;;;;;6.75;6.75;;;;;17.11;100.00;96465.53;6222140;28;96978;-61
2023/11/03 00:25:27;;;;;;;;;8.00;7.00;;;;;17.00;100.00;96484.16;6242546;27;96432;-60
2023/11/03 00:28:32;;;;;;;;;11.00;11.00;;;;;17.11;100.00;96466.34;6222578;28;96597;-60
2023/11/03 00:31:35;;;;;;;;;10.40;10.40;;;;;16.99;100.00;96468.94;6221972;28;96878;-60
2023/11/03 00:34:38;;;;;;;;;7.00;7.00;;;;;16.99;100.00;96459.97;6215727;28;96509;-59
2023/11/03 00:37:41;;;;;;;;;6.50;6.00;;;;;16.87;100.00;96461.41;6217528;28;96285;-59
2023/11/03 00:40:45;;;;;;;;;7.40;7.40;;;;;16.91;100.00;96463.50;6215401;28;97895;-60
2023/11/03 00:43:50;;;;;;;;;9.00;8.20;;;;;16.99;100.00;96460.75;6205845;28;98571;-60
2023/11/03 00:46:54;;;;;;;;;7.80;7.40;;;;;16.97;100.00;96465.72;6240104;28;96276;-60
2023/11/03 00:49:57;;;;;;;;;10.00;9.00;;;;;16.95;100.00;96459.00;6240725;28;96755;-59
2023/11/03 00:53:00;;;;;;;;;11.75;11.75;;;;;16.95;100.00;96446.19;6239996;27;96462;-60
2023/11/03 00:56:04;;;;;;;;;9.00;9.00;;;;;16.89;100.00;96439.31;6235528;28;98577;-59
2023/11/03 00:59:09;;;;;;;;;8.00;8.00;;;;;16.81;100.00;96442.84;6221258;28;99033;-60
2023/11/03 01:02:14;;;;;;;;;7.60;7.60;;;;;16.71;100.00;96446.66;6221111;28;96743;-60
2023/11/03 01:05:21;;;;;;;;;8.80;8.20;;;;;16.73;100.00;96443.63;6239525;28;96913;-60
2023/11/03 01:08:24;;;;;;;;;6.60;6.60;;;;;16.74;100.00;96451.50;6230755;28;96776;-59
2023/11/03 01:11:27;;;;;;;;;8.00;7.00;;;;;16.82;100.00;96433.53;6213305;28;96528;-60
2023/11/03 01:14:32;;;;;;;;;8.00;7.20;;;;;16.88;100.00;96424.91;6229499;27;96683;-60
2023/11/03 01:17:36;;;;;;;;;9.00;8.00;;;;;16.78;100.00;96425.22;6216065;28;96279;-60
2023/11/03 01:20:39;;;;;;;;;9.80;9.80;;;;;16.76;100.00;96421.25;6207127;28;96683;-60
2023/11/03 01:23:43;;;;;;;;;10.75;10.75;;;;;16.69;100.00;96418.19;6239100;28;96530;-60
2023/11/03 01:26:47;;;;;;;;;9.00;8.50;;;;;16.76;100.00;96415.81;6238484;28;96730;-59
2023/11/03 01:29:51;;;;;;;;;7.00;6.50;;;;;16.76;100.00;96407.66;6215433;28;96713;-60
2023/11/03 01:32:57;;;;;;;;;8.40;8.00;;;;;16.75;100.00;96397.88;6221277;28;96330;-60
2023/11/03 01:36:04;;;;;;;;;10.00;9.00;;;;;16.81;100.00;96400.09;6234690;28;96718;-60
2023/11/03 01:39:08;;;;;;;;;9.00;9.00;;;;;16.83;100.00;96407.94;6235748;27;96716;-59
2023/11/03 01:42:12;;;;;;;;;10.20;10.20;;;;;16.91;100.00;96404.41;6213206;28;96549;-60
2023/11/03 01:45:17;;;;;;;;;8.00;8.00;;;;;16.97;100.00;96394.94;6213222;28;96907;-59
2023/11/03 01:48:21;;;;;;;;;9.25;8.00;;;;;17.04;100.00;96408.88;6196823;28;98386;-59
2023/11/03 01:51:24;;;;;;;;;10.00;9.20;;;;;16.99;100.00;96408.25;6215340;28;96288;-59
2023/11/03 01:54:28;;;;;;;;;11.00;10.00;;;;;17.04;100.00;96418.97;6219310;28;98632;-60
2023/11/03 01:57:32;;;;;;;;;8.40;8.40;;;;;16.99;100.00;96402.81;6232631;27;96700;-60
2023/11/03 02:00:36;;;;;;;;;8.00;8.00;;;;;17.04;100.00;96400.72;6233420;28;96447;-59
2023/11/03 02:03:39;;;;;;;;;8.00;7.00;;;;;17.03;100.00;96406.47;6210401;22;96379;-59
2023/11/03 02:06:44;;;;;;;;;8.00;8.00;;;;;17.12;100.00;96402.63;6186958;28;96345;-60
2023/11/03 02:09:48;;;;;;;;;7.00;7.00;;;;;17.16;100.00;96397.31;6180332;28;96859;-60
2023/11/03 02:12:51;;;;;;;;;9.00;8.00;;;;;17.14;100.00;96388.69;6239116;28;96343;-60
2023/11/03 02:15:55;;;;;;;;;7.00;7.00;;;;;17.16;100.00;96380.97;6238942;28;96654;-59
2023/11/03 02:18:59;;;;;;;;;10.00;10.00;;;;;17.15;100.00;96382.13;6230150;28;98560;-60
2023/11/03 02:22:02;;;;;;;;;9.00;7.60;;;;;17.20;100.00;96366.38;6211397;28;96950;-60
2023/11/03 02:25:08;;;;;;;;;10.00;10.00;;;;;17.27;100.00;96377.59;6205831;28;96387;-60
2023/11/03 02:28:12;;;;;;;;;8.00;8.00;;;;;17.37;100.00;96370.19;6214828;28;96803;-60
2023/11/03 02:31:15;;;;;;;;;9.00;9.00;;;;;17.44;100.00;96381.38;6213266;28;96684;-60
2023/11/03 02:34:18;;;;;;;;;11.00;9.00;;;;;17.44;100.00;96363.13;6215475;28;96890;-61
2023/11/03 02:37:21;;;;;;;;;8.50;8.50;;;;;17.46;100.00;96355.41;6189349;28;96242;-60
2023/11/03 02:40:26;;;;;;;;;8.00;8.00;;;;;17.44;100.00;96356.88;6191961;28;96757;-59
2023/11/03 02:43:29;;;;;;;;;10.00;10.00;;;;;17.47;100.00;96362.47;6213980;28;96722;-59
2023/11/03 02:46:32;;;;;;;;;10.00;10.00;;;;;17.48;100.00;96352.38;6213848;28;96455;-60
2023/11/03 02:49:35;;;;;;;;;8.00;7.67;;;;;17.51;100.00;96348.97;6202389;28;96583;-60
2023/11/03 02:52:38;;;;;;;;;8.00;8.00;;;;;17.57;100.00;96350.41;6214145;28;96338;-61
2023/11/03 02:55:43;;;;;;;;;8.00;8.00;;;;;17.61;100.00;96351.38;6212727;28;98432;-60
2023/11/03 02:58:46;;;;;;;;;8.00;8.00;;;;;17.64;100.00;96348.00;6211628;28;96236;-61
2023/11/03 03:01:49;;;;;;;;;9.50;9.50;;;;;17.60;100.00;96344.31;6205389;28;96683;-60
2023/11/03 03:04:52;;;;;;;;;9.00;9.00;;;;;17.45;100.00;96345.63;6169682;28;96768;-60
2023/11/03 03:07:55;;;;;;;;;7.00;7.00;;;;;17.41;100.00;96336.53;6208478;28;97002;-61
2023/11/03 03:11:01;;;;;;;;;7.60;7.00;;;;;17.36;100.00;96335.91;6212307;28;96426;-60
2023/11/03 03:14:04;;;;;;;;;7.40;7.00;;;;;17.36;100.00;96331.25;6204996;28;98453;-60
2023/11/03 03:17:07;;;;;;;;;8.00;7.00;;;;;17.38;100.00;96320.06;6212416;28;96372;-60
2023/11/03 03:20:11;;;;;;;;;8.00;7.00;;;;;17.45;100.00;96326.56;6215776;28;96340;-60
2023/11/03 03:23:14;;;;;;;;;6.75;6.00;;;;;17.50;100.00;96320.13;6217285;28;96312;-60
2023/11/03 03:26:19;;;;;;;;;7.60;7.60;;;;;17.55;100.00;96298.16;6218012;28;96471;-60
2023/11/03 03:29:23;;;;;;;;;6.50;6.50;;;;;17.58;100.00;96300.25;6218968;28;96368;-59
2023/11/03 03:32:26;;;;;;;;;6.00;6.00;;;;;17.64;100.00;96301.69;6216259;28;96289;-59
2023/11/03 03:35:29;;;;;;;;;10.00;10.00;;;;;17.77;100.00;96308.00;6217470;28;96300;-60
2023/11/03 03:38:32;;;;;;;;;8.50;8.00;;;;;17.80;100.00;96305.41;6212001;28;96710;-60
2023/11/03 03:41:36;;;;;;;;;9.00;8.40;;;;;17.90;100.00;96298.78;6193382;28;96611;-60
2023/11/03 03:44:40;;;;;;;;;8.00;7.00;;;;;17.89;100.00;96297.97;6175391;28;96739;-59
2023/11/03 03:47:44;;;;;;;;;8.00;8.00;;;;;17.86;100.00;96290.47;6227122;28;96314;-61
2023/11/03 03:50:47;;;;;;;;;8.50;8.00;;;;;17.95;100.00;96284.97;6230320;28;98340;-61
2023/11/03 03:53:50;;;;;;;;;8.00;6.40;;;;;17.94;100.00;96267.81;6228591;28;98997;-62
2023/11/03 03:56:54;;;;;;;;;6.00;6.00;;;;;17.92;100.00;96251.00;6229443;28;96272;-62
2023/11/03 03:59:57;;;;;;;;;8.00;7.00;;;;;17.98;100.00;96248.88;6228515;28;96321;-61
2023/11/03 04:03:01;;;;;;;;;8.00;8.00;;;;;17.95;100.00;96250.31;6226425;28;97314;-61
2023/11/03 04:06:04;;;;;;;;;7.00;7.00;;;;;18.02;100.00;96245.16;6227029;28;96621;-61
2023/11/03 04:09:07;;;;;;;;;6.00;6.00;;;;;17.99;100.00;96237.63;6227602;28;96494;-61
2023/11/03 04:12:12;;;;;;;;;6.00;6.00;;;;;17.96;100.00;96227.41;6227204;28;96369;-61
2023/11/03 04:15:15;;;;;;;;;6.60;6.00;;;;;17.98;100.00;96232.53;6230945;28;96611;-61
2023/11/03 04:18:18;;;;;;;;;5.00;5.00;;;;;18.06;100.00;96218.00;6221118;28;97078;-61
2023/11/03 04:21:21;;;;;;;;;7.40;7.00;;;;;17.95;100.00;96214.91;6215242;28;96326;-61
2023/11/03 04:24:24;;;;;;;;;6.50;6.00;;;;;17.97;100.00;96209.91;6200888;28;96303;-62
2023/11/03 04:27:29;;;;;;;;;6.00;5.60;;;;;17.99;100.00;96195.94;6210403;28;96982;-61
2023/11/03 04:30:34;;;;;;;;;7.00;7.00;;;;;17.85;100.00;96185.31;6204248;28;96331;-61
2023/11/03 04:33:37;;;;;;;;;8.40;7.00;;;;;17.80;100.00;96157.47;6214220;28;96434;-61
2023/11/03 04:36:40;;;;;;;;;6.60;6.60;;;;;17.65;100.00;96162.41;6224420;28;96352;-61
2023/11/03 04:39:43;;;;;;;;;7.60;7.60;;;;;17.61;100.00;96163.41;6216835;28;98833;-61
2023/11/03 04:42:48;;;;;;;;;6.60;6.60;;;;;17.58;100.00;96153.16;6209611;28;96632;-61
2023/11/03 04:45:51;;;;;;;;;7.00;6.60;;;;;17.58;100.00;96164.84;6202604;28;97353;-61
2023/11/03 04:48:54;;;;;;;;;7.00;6.80;;;;;17.52;100.00;96158.00;6228878;28;97860;-61
2023/11/03 04:51:57;;;;;;;;;6.00;6.00;;;;;17.41;100.00;96136.94;6219890;28;97961;-62
2023/11/03 04:55:00;;;;;;;;;7.40;6.40;;;;;17.42;100.00;96147.50;6216800;28;97363;-62
2023/11/03 04:58:05;;;;;;;;;5.40;5.40;;;;;17.63;100.00;96158.44;6217891;28;98865;-62
2023/11/03 05:01:08;;;;;;;;;8.20;7.20;;;;;17.78;100.00;96166.00;6214089;28;97928;-62
2023/11/03 05:04:11;;;;;;;;;7.00;6.00;;;;;17.91;100.00;96164.13;6216536;28;96333;-62
2023/11/03 05:07:14;;;;;;;;;6.00;6.00;;;;;18.01;100.00;96158.25;6201633;28;96572;-62
2023/11/03 05:10:19;;;;;;;;;5.00;5.00;;;;;18.11;100.00;96144.19;6216742;28;98441;-62
2023/11/03 05:13:24;;;;;;;;;8.00;8.00;;;;;18.20;100.00;96136.72;6209462;28;97182;-63
2023/11/03 05:16:27;;;;;;;;;8.80;8.80;;;;;18.29;100.00;96151.06;6209482;28;97087;-63
2023/11/03 05:19:30;;;;;;;;;8.00;7.00;;;;;18.35;100.00;96152.44;6199951;28;96756;-63
2023/11/03 05:22:33;;;;;;;;;7.40;7.40;;;;;18.40;100.00;96144.03;6205219;28;96258;-63
2023/11/03 05:25:36;;;;;;;;;5.60;5.60;;;;;18.46;100.00;96147.34;6205021;28;96407;-63
2023/11/03 05:28:41;;;;;;;;;7.00;7.00;;;;;18.43;100.00;96150.75;6208648;28;96625;-63
2023/11/03 05:31:44;;;;;;;;;5.40;5.40;;;;;18.27;100.00;96136.97;6206283;28;96731;-63
2023/11/03 05:34:47;;;;;;;;;6.40;6.40;;;;;18.35;100.00;96124.38;6212265;28;97030;-63
2023/11/03 05:37:51;;;;;;;;;4.60;4.60;;;;;18.17;100.00;96140.13;6205881;28;96903;-63
2023/11/03 05:40:54;;;;;;;;;5.00;5.00;;;;;18.22;100.00;96150.03;6191893;28;99116;-63
2023/11/03 05:43:59;;;;;;;;;3.75;3.75;;;;;17.93;100.00;96159.94;6201067;28;96636;-63
2023/11/03 05:47:02;;;;;;;;;6.00;6.00;;;;;17.83;100.00;96141.28;6183595;28;98555;-63
2023/11/03 05:50:06;;;;;;;;;4.00;4.00;;;;;17.66;100.00;96122.34;6208721;28;96899;-63
2023/11/03 05:53:10;;;;;;;;;6.75;6.75;;;;;17.64;100.00;96089.19;6214289;28;96789;-63
2023/11/03 05:56:13;;;;;;;;;6.00;6.00;;;;;17.53;100.00;96085.25;6205303;28;96542;-63
2023/11/03 05:59:17;;;;;;;;;6.00;6.00;;;;;17.47;100.00;96086.59;6211509;28;96467;-63
2023/11/03 06:02:20;;;;;;;;;6.40;6.40;;;;;17.68;100.00;96122.81;6210757;28;96565;-63
2023/11/03 06:05:24;;;;;;;;;3.00;3.00;;;;;17.55;100.00;96119.19;6208678;28;96825;-63
2023/11/03 06:08:27;;;;;;;;;6.00;6.00;;;;;17.53;100.00;96123.38;6200221;28;96399;-65
2023/11/03 06:11:30;;;;;;;;;2.00;2.00;;;;;17.49;100.00;96130.63;6219971;28;97340;-64
2023/11/03 06:14:35;;;;;;;;;3.00;3.00;;;;;17.63;100.00;96148.34;6188638;28;97564;-65
2023/11/03 06:17:38;;;;;;;;;4.00;3.00;;;;;17.47;100.00;96139.13;6198177;28;96935;-64
2023/11/03 06:20:41;;;;;;;;;3.00;3.00;;;;;17.37;100.00;96131.34;6220263;28;96343;-65
2023/11/03 06:23:44;;;;;;;;;3.00;3.00;;;;;17.24;100.00;96124.25;6195042;28;98365;-65
2023/11/03 06:26:47;;;;;;;;;4.40;4.40;;;;;17.26;100.00;96120.06;6213397;28;96556;-65
2023/11/03 06:29:52;;;;;;;;;6.60;5.00;;;;;17.15;100.00;96097.06;6213407;28;96926;-65
2023/11/03 06:32:55;;;;;;;;;4.00;4.00;;;;;17.11;100.00;96111.69;6213251;28;96588;-65
2023/11/03 06:35:59;;;;;;;;;2.20;2.00;;;;;17.11;100.00;96114.41;6212978;28;96698;-65
2023/11/03 06:39:03;;;;;;;;;4.00;3.00;;;;;17.37;100.00;96127.84;6212769;28;96215;-65
2023/11/03 06:42:07;;;;;;;;;3.00;3.00;;;;;17.47;100.00;96132.88;6212990;28;96356;-65
2023/11/03 06:45:12;;;;;;;;;2.00;2.00;;;;;17.64;100.00;96117.22;6211466;28;98478;-65
2023/11/03 06:48:15;;;;;;;;;3.00;2.40;;;;;17.78;100.00;96097.09;6212615;28;96855;-65
2023/11/03 06:51:18;;;;;;;;;4.00;4.00;;;;;17.90;100.00;96094.38;6212692;28;96547;-65
2023/11/03 06:54:22;;;;;;;;;3.00;2.00;;;;;18.07;100.00;96103.19;6210521;28;96497;-65
2023/11/03 06:57:26;;;;;;;;;3.40;3.40;;;;;18.22;100.00;96093.56;6212466;28;96519;-65
2023/11/03 07:00:31;;;;;;;;;5.00;4.00;;;;;18.36;100.00;96117.78;6211352;28;96667;-65
2023/11/03 07:03:34;;;;;;;;;4.00;4.00;;;;;18.48;100.00;96134.16;6211347;28;96793;-65
2023/11/03 07:06:37;;;;;;;;;4.50;4.00;;;;;18.56;100.00;96152.41;6212693;28;96475;-65
2023/11/03 07:09:40;;;;;;;;;4.40;4.40;;;;;18.60;100.00;96134.22;6211951;28;96675;-65
2023/11/03 07:12:44;;;;;;;;;4.00;3.00;;;;;18.55;100.00;96121.59;6202869;28;96325;-65
2023/11/03 07:15:49;;;;;;;;;3.00;3.00;;;;;18.44;100.00;96090.41;6206353;28;96507;-61
2023/11/03 07:18:52;;;;;;;;;6.00;6.00;;;;;18.27;100.00;96093.34;6212235;28;96368;-60
2023/11/03 07:21:57;;;;;;;;;4.00;4.00;;;;;18.38;100.00;96101.84;6207293;28;96738;-60
2023/11/03 07:25:00;;;;;;;;;2.60;2.60;;;;;18.48;100.00;96112.31;6200927;28;96671;-61
2023/11/03 07:28:03;;;;;;;;;3.00;2.00;;;;;18.55;100.00;96102.50;6226012;28;96574;-61
2023/11/03 07:31:11;;;;;;;;;3.00;3.00;;;;;18.62;100.00;96099.19;6226769;28;97090;-61
2023/11/03 07:34:14;;;;;;;;;4.40;4.00;;;;;18.55;100.00;96083.41;6198121;28;96643;-61
2023/11/03 07:37:18;;;;;;;;;4.20;4.20;;;;;18.75;100.00;96089.06;6224575;28;97167;-61
2023/11/03 07:40:21;;;;;;;;;3.00;3.00;;;;;18.71;100.00;96083.53;6197575;28;97597;-61
2023/11/03 07:43:24;;;;;;;;;4.00;4.00;;;;;18.90;100.00;96093.84;6208572;28;96775;-60
2023/11/03 07:46:30;;;;;;;;;4.00;4.00;;;;;18.85;100.00;96091.34;6202178;28;96568;-60
2023/11/03 07:49:33;;;;;;;;;4.40;4.00;;;;;18.82;100.00;96092.00;6213075;28;96891;-60
2023/11/03 07:52:36;;;;;;;;;6.50;5.50;;;;;18.67;100.00;96077.13;6226580;28;97697;-61
2023/11/03 07:55:39;;;;;;;;;5.00;4.00;;;;;18.71;100.00;96093.63;6210551;28;98428;-61
2023/11/03 07:58:42;;;;;;;;;4.00;4.00;;;;;18.72;100.00;96097.94;6210828;28;96930;-61
2023/11/03 08:01:47;;;;;;;;;4.00;3.33;;;;;18.67;100.00;96090.78;6198825;28;96432;-60
2023/11/03 08:04:51;;;;;;;;;4.00;4.00;;;;;18.71;100.00;96085.44;6212018;28;97002;-60
2023/11/03 08:07:54;;;;;;;;;3.80;3.20;;;;;18.77;100.00;96086.78;6197287;28;96899;-60
2023/11/03 08:10:58;;;;;;;;;6.00;6.00;;;;;18.84;100.00;96070.66;6214237;28;96334;-60
2023/11/03 08:14:01;;;;;;;;;4.60;3.60;;;;;18.86;100.00;96082.03;6207043;28;96673;-60
2023/11/03 08:17:05;;;;;;;;;5.00;5.00;;;;;18.86;100.00;96074.59;6204457;28;97153;-61
2023/11/03 08:20:11;;;;;;;;;6.00;6.00;;;;;18.77;100.00;96068.47;6214495;28;96332;-61
2023/11/03 08:23:15;;;;;;;;;6.00;6.00;;;;;18.79;100.00;96077.13;6202397;28;96829;-61
2023/11/03 08:26:21;;;;;;;;;7.00;6.80;;;;;18.68;100.00;96072.47;6202669;28;97359;-61
2023/11/03 08:29:24;;;;;;;;;6.00;6.00;;;;;18.63;100.00;96075.44;6218529;28;96245;-61
2023/11/03 08:32:29;;;;;;;;;6.25;5.50;;;;;18.52;100.00;96067.66;6197089;28;96674;-60
2023/11/03 08:35:32;;;;;;;;;4.00;4.00;;;;;18.58;100.00;96060.09;6214599;28;97081;-61
2023/11/03 08:38:37;;;;;;;;;6.40;6.40;;;;;18.35;100.00;96046.06;6214786;28;97070;-62
2023/11/03 08:41:40;;;;;;;;;8.00;8.00;;;;;18.42;100.00;96029.16;6214893;28;96753;-61
2023/11/03 08:44:44;;;;;;;;;7.00;6.00;;;;;18.48;100.00;96033.22;6202121;28;96550;-61
2023/11/03 08:47:48;;;;;;;;;7.00;6.00;;;;;18.59;100.00;96039.84;6191436;28;98552;-63
2023/11/03 08:50:52;;;;;;;;;6.50;6.50;;;;;18.53;100.00;96035.72;6199568;28;96191;-61
2023/11/03 08:53:55;;;;;;;;;6.00;6.00;;;;;18.72;100.00;96032.44;6194467;28;96896;-61
2023/11/03 08:56:59;;;;;;;;;5.00;4.60;;;;;18.82;100.00;96019.13;6213866;28;96762;-61
2023/11/03 09:00:08;;;;;;;;;5.80;5.00;;;;;18.74;100.00;96011.88;6212710;28;96666;-61
2023/11/03 09:03:12;;;;;;;;;5.60;5.00;;;;;18.92;100.00;95999.53;6213539;28;96695;-61
2023/11/03 09:06:17;;;;;;;;;3.00;3.00;;;;;18.87;100.00;96005.25;6203859;28;100039;-61
2023/11/03 09:09:22;;;;;;;;;3.80;3.00;;;;;19.01;100.00;95989.28;6206636;28;96407;-61
2023/11/03 09:12:25;;;;;;;;;3.20;3.00;;;;;18.85;100.00;95995.81;6226829;28;96620;-61
2023/11/03 09:15:29;;;;;;;;;6.75;5.00;;;;;18.57;100.00;95999.25;6203839;28;96486;-61
2023/11/03 09:18:43;;;;;;;;;3.20;3.20;;;;;18.75;100.00;95983.44;6194815;28;98381;-61
2023/11/03 09:21:46;;;;;;;;;4.00;4.00;;;;;18.61;100.00;95972.13;6213843;28;96366;-61
2023/11/03 09:24:53;;;;;;;;;5.00;5.00;;;;;18.26;100.00;95982.69;6222336;28;96667;-62
2023/11/03 09:27:57;;;;;;;;;6.25;6.00;;;;;18.12;100.00;95942.13;6206424;28;97333;-62
2023/11/03 09:31:00;;;;;;;;;7.00;7.00;;;;;17.97;100.00;95964.63;6227922;28;97101;-62
2023/11/03 09:34:05;;;;;;;;;7.40;7.40;;;;;17.99;100.00;95945.19;6210267;28;96856;-62
2023/11/03 09:37:09;;;;;;;;;8.67;7.00;;;;;18.12;100.00;95933.97;6209886;28;97677;-65
2023/11/03 09:40:16;;;;;;;;;6.00;6.00;;;;;17.98;100.00;95916.34;6211366;28;96445;-65
2023/11/03 09:43:20;;;;;;;;;8.00;7.00;;;;;18.32;100.00;95936.88;6208806;28;96917;-65
2023/11/03 09:46:24;;;;;;;;;7.00;6.00;;;;;18.31;100.00;95940.75;6203383;28;96339;-65
2023/11/03 09:49:29;;;;;;;;;5.00;5.00;;;;;18.40;100.00;95933.22;6212815;28;97620;-65
2023/11/03 09:52:38;;;;;;;;;5.40;5.40;;;;;18.47;100.00;95930.75;6213330;28;97188;-65
2023/11/03 09:55:43;;;;;;;;;10.20;9.60;;;;;18.57;100.00;95919.34;6212800;28;97278;-65
2023/11/03 09:58:48;;;;;;;;;8.00;8.00;;;;;18.51;100.00;95909.81;6212964;28;96575;-65
2023/11/03 10:01:52;;;;;;;;;5.80;5.80;;;;;18.52;100.00;95908.69;6219633;28;96291;-65
2023/11/03 10:04:56;;;;;;;;;6.00;5.40;;;;;18.73;100.00;95892.94;6186926;28;98678;-65
2023/11/03 10:08:01;;;;;;;;;6.00;5.20;;;;;18.74;100.00;95894.53;6189878;28;98458;-65
2023/11/03 10:11:05;;;;;;;;;7.00;6.50;;;;;18.80;100.00;95884.97;6227196;28;96904;-65
2023/11/03 10:14:08;;;;;;;;;5.20;5.20;;;;;18.96;100.00;95872.16;6203921;28;96694;-65
2023/11/03 10:17:11;;;;;;;;;4.00;4.00;;;;;19.06;100.00;95867.34;6207682;28;97382;-65
2023/11/03 10:20:16;;;;;;;;;4.00;4.00;;;;;19.16;100.00;95872.28;6207952;27;96542;-65
2023/11/03 10:23:22;;;;;;;;;4.00;4.00;;;;;19.20;100.00;95878.66;6212823;28;96808;-65
2023/11/03 10:26:26;;;;;;;;;4.00;4.00;;;;;19.29;100.00;95871.88;6227692;28;97096;-65
2023/11/03 10:29:29;;;;;;;;;4.00;4.00;;;;;19.11;100.00;95886.97;6212179;28;96863;-65
2023/11/03 10:32:35;;;;;;;;;6.60;6.60;;;;;18.85;100.00;95875.75;6210736;28;96893;-65
2023/11/03 10:35:40;;;;;;;;;5.60;5.00;;;;;18.83;100.00;95881.53;6198013;28;96959;-64
2023/11/03 10:38:44;;;;;;;;;7.40;7.00;;;;;19.01;100.00;95862.91;6200204;28;96564;-65
2023/11/03 10:42:02;;;;;;;;;8.40;7.40;;;;;19.04;100.00;95857.56;6210477;28;97651;-65
2023/11/03 10:45:08;;;;;;;;;7.00;6.00;;;;;19.21;100.00;95853.69;6202125;28;98668;-65
2023/11/03 10:48:16;;;;;;;;;7.00;7.00;;;;;19.16;100.00;95834.84;6203083;28;97158;-66
2023/11/03 10:51:29;;;;;;;;;6.60;6.60;;;;;18.92;100.00;95830.31;6227114;28;96821;-67
2023/11/03 10:54:43;;;;;;;;;4.00;4.00;;;;;18.75;100.00;95817.00;6196302;28;96782;-66
2023/11/03 10:57:46;;;;;;;;;5.00;5.00;;;;;18.32;100.00;95808.72;6211590;28;96292;-66
2023/11/03 11:01:03;;;;;;;;;8.00;8.00;;;;;18.26;100.00;95829.19;6211249;28;98413;-67
2023/11/03 11:04:16;;;;;;;;;6.75;6.75;;;;;18.42;100.00;95817.19;6209372;28;96724;-67
2023/11/03 11:07:25;;;;;;;;;6.00;6.00;;;;;18.66;100.00;95815.56;6218085;28;96636;-67
2023/11/03 11:10:37;;;;;;;;;8.40;7.60;;;;;18.20;100.00;95798.63;6211625;28;96371;-66
2023/11/03 11:13:42;;;;;;;;;7.00;5.75;;;;;18.35;100.00;95787.00;6210321;28;96743;-66
2023/11/03 11:16:48;;;;;;;;;5.00;5.00;;;;;18.27;100.00;95800.78;6208642;28;96750;-66
2023/11/03 11:19:52;;;;;;;;;7.75;7.75;;;;;18.21;100.00;95772.97;6207290;28;96707;-66
2023/11/03 11:22:59;;;;;;;;;4.00;4.00;;;;;18.06;100.00;95763.59;6209208;28;96626;-66
2023/11/03 11:26:14;;;;;;;;;5.00;4.00;;;;;18.41;100.00;95766.53;6195690;28;97337;-66
2023/11/03 11:29:39;;;;;;;;;6.00;5.60;;;;;18.33;100.00;95772.91;6207645;28;96824;-66
2023/11/03 11:32:50;;;;;;;;;5.25;5.25;;;;;18.32;100.00;95776.00;6209573;28;96316;-66
2023/11/03 11:35:55;;;;;;;;;5.75;5.75;;;;;17.86;100.00;95763.75;6224748;28;96548;-66
2023/11/03 11:39:08;;;;;;;;;4.00;4.00;;;;;17.95;100.00;95769.84;6210751;28;96554;-66
2023/11/03 11:42:12;;;;;;;;;5.80;5.00;;;;;18.30;100.00;95778.28;6229127;28;96663;-66
2023/11/03 11:45:16;;;;;;;;;5.40;5.00;;;;;18.30;100.00;95770.09;6223305;28;97273;-66
2023/11/03 11:48:20;;;;;;;;;5.75;5.75;;;;;18.17;100.00;95777.53;6203057;28;96391;-67
2023/11/03 11:51:27;;;;;;;;;5.00;5.00;;;;;18.35;100.00;95794.38;6214057;28;96683;-67
2023/11/03 11:54:31;;;;;;;;;3.00;3.00;;;;;18.17;100.00;95816.50;6215342;28;96363;-66
2023/11/03 11:57:37;;;;;;;;;6.00;5.00;;;;;17.94;100.00;95820.84;6213156;28;96545;-66
2023/11/03 12:00:41;;;;;;;;;5.00;4.00;;;;;18.16;100.00;95809.44;6213638;28;96464;-66
2023/11/03 12:03:44;;;;;;;;;7.20;7.00;;;;;18.07;100.00;95803.34;6228868;28;96553;-66
2023/11/03 12:06:47;;;;;;;;;7.20;7.00;;;;;18.34;100.00;95799.03;6225337;28;96572;-65
2023/11/03 12:09:53;;;;;;;;;7.80;7.40;;;;;18.47;100.00;95791.63;6206306;28;96531;-66
2023/11/03 12:13:06;;;;;;;;;7.25;7.25;;;;;18.33;100.00;95804.84;6197033;28;96884;-65
2023/11/03 12:16:10;;;;;;;;;7.25;6.25;;;;;18.38;100.00;95807.31;6204629;28;96346;-66
2023/11/03 12:19:15;;;;;;;;;7.60;7.00;;;;;18.49;100.00;95792.06;6227907;28;97154;-66
2023/11/03 12:22:22;;;;;;;;;7.00;7.00;;;;;18.22;100.00;95785.47;6213240;28;96511;-66
2023/11/03 12:25:29;;;;;;;;;3.75;3.75;;;;;18.30;100.00;95800.09;6215072;28;96285;-66
2023/11/03 12:28:36;;;;;;;;;10.40;9.40;;;;;18.19;100.00;95806.03;6214799;28;96738;-66
2023/11/03 12:31:39;;;;;;;;;10.60;10.60;;;;;18.26;100.00;95800.00;6195167;28;97131;-65
2023/11/03 12:34:45;;;;;;;;;5.20;5.20;;;;;18.21;100.00;95816.59;6192820;28;98554;-66
2023/11/03 12:37:52;;;;;;;;;8.00;8.00;;;;;18.36;100.00;95823.25;6222085;28;96309;-65
2023/11/03 12:44:23;;;;;;;;;7.50;7.50;;;;;18.00;100.00;95789.50;6301855;27;96844;-65
2023/11/03 12:47:38;;;;;;;;;9.00;8.00;;;;;18.06;100.00;95782.66;6264082;27;96510;-66
2023/11/03 12:50:51;;;;;;;;;8.40;8.40;;;;;18.18;100.00;95779.88;6264529;27;96863;-66
2023/11/03 12:53:55;;;;;;;;;6.00;6.00;;;;;18.19;100.00;95772.50;6233007;27;96569;-65
2023/11/03 12:56:59;;;;;;;;;6.20;6.20;;;;;18.08;100.00;95757.81;6272944;27;97038;-66
2023/11/03 13:00:07;;;;;;;;;6.50;6.50;;;;;18.04;100.00;95743.25;6283426;27;96645;-66
2023/11/03 13:03:15;;;;;;;;;8.00;6.00;;;;;18.14;100.00;95749.00;6282947;27;96735;-66
2023/11/03 13:06:21;;;;;;;;;3.00;3.00;;;;;17.94;100.00;95755.44;6248416;27;96316;-65
2023/11/03 13:09:25;;;;;;;;;7.00;6.00;;;;;18.05;100.00;95751.09;6240456;27;96381;-66
2023/11/03 13:12:30;;;;;;;;;7.00;7.00;;;;;18.00;100.00;95739.63;6240182;27;96642;-64
2023/11/03 13:15:35;;;;;;;;;6.00;6.00;;;;;18.09;100.00;95735.63;6235874;27;97800;-66
2023/11/03 13:18:43;;;;;;;;;5.60;5.00;;;;;18.16;100.00;95738.56;6257203;27;96917;-66
2023/11/03 13:21:49;;;;;;;;;7.00;7.00;;;;;18.30;100.00;95726.47;6257749;27;96647;-66
2023/11/03 13:24:53;;;;;;;;;5.00;5.00;;;;;18.39;100.00;95705.28;6258277;27;96808;-65
2023/11/03 13:27:57;;;;;;;;;6.00;5.00;;;;;18.44;100.00;95680.50;6236033;27;96562;-66
2023/11/03 13:31:04;;;;;;;;;4.00;3.60;;;;;18.40;100.00;95699.50;6246639;27;96600;-65
2023/11/03 13:34:12;;;;;;;;;7.40;7.40;;;;;18.20;100.00;95686.88;6237269;27;96592;-65
2023/11/03 13:37:15;;;;;;;;;5.60;5.00;;;;;18.11;100.00;95703.38;6239787;27;98477;-65
2023/11/03 13:40:20;;;;;;;;;6.00;6.00;;;;;18.14;100.00;95712.78;6239298;27;97048;-66
2023/11/03 13:43:25;;;;;;;;;5.00;4.25;;;;;17.91;100.00;95719.91;6228636;27;96716;-66
2023/11/03 13:46:29;;;;;;;;;4.75;4.75;;;;;18.10;100.00;95739.94;6254013;27;96451;-66
2023/11/03 13:49:35;;;;;;;;;3.80;3.80;;;;;17.87;100.00;95741.63;6220743;27;97641;-65
2023/11/03 13:52:39;;;;;;;;;6.00;6.00;;;;;17.75;100.00;95766.16;6250359;27;97854;-65
2023/11/03 13:55:42;;;;;;;;;3.00;3.00;;;;;17.64;100.00;95778.66;6240527;27;96894;-65
2023/11/03 13:58:47;;;;;;;;;7.00;6.40;;;;;17.83;100.00;95775.34;6238873;28;96546;-65
2023/11/03 14:01:53;;;;;;;;;5.00;5.00;;;;;17.65;100.00;95772.84;6223121;28;96997;-66
2023/11/03 14:04:56;;;;;;;;;6.60;6.20;;;;;17.98;100.00;95761.00;6221714;28;96721;-65
2023/11/03 14:07:59;;;;;;;;;7.00;7.00;;;;;18.06;100.00;95735.53;6239281;28;96593;-65
2023/11/03 14:11:04;;;;;;;;;3.60;2.60;;;;;17.86;100.00;95677.34;6227523;28;96909;-65
2023/11/03 14:14:07;;;;;;;;;7.00;6.00;;;;;18.03;100.00;95657.19;6220513;28;97655;-65
2023/11/03 14:17:11;;;;;;;;;6.00;5.00;;;;;18.10;100.00;95679.19;6219488;28;96971;-66
2023/11/03 14:20:17;;;;;;;;;5.00;4.00;;;;;18.26;100.00;95692.88;6235279;28;96903;-67